createdAt,value
2023-03-27T00:02:16.418Z,65.20
2023-03-27T00:04:44.373Z,65.40
2023-03-27T00:07:12.353Z,65.20
2023-03-27T00:09:40.667Z,64.80
2023-03-27T00:12:09.928Z,64.60
2023-03-27T00:14:37.841Z,64.70
2023-03-27T00:17:05.904Z,64.80
2023-03-27T00:19:34.343Z,64.90
2023-03-27T00:22:02.205Z,64.70
2023-03-27T00:24:30.055Z,64.80
2023-03-27T00:26:58.212Z,64.90
2023-03-27T00:29:27.750Z,65.00
2023-03-27T00:31:56.116Z,65.10
2023-03-27T00:34:24.032Z,65.10
2023-03-27T00:36:53.646Z,65.00
2023-03-27T00:39:21.609Z,65.10
2023-03-27T00:41:49.544Z,65.10
2023-03-27T00:44:22.605Z,65.10
2023-03-27T00:46:52.263Z,65.40
2023-03-27T00:49:20.156Z,65.30
2023-03-27T00:51:48.394Z,65.00
2023-03-27T00:54:17.471Z,64.50
2023-03-27T00:56:45.704Z,64.40
2023-03-27T00:59:15.484Z,64.40
2023-03-27T01:01:43.478Z,64.70
2023-03-27T01:04:13.707Z,64.60
2023-03-27T01:06:42.516Z,64.60
2023-03-27T01:09:11.025Z,64.70
2023-03-27T01:11:53.500Z,64.80
2023-03-27T01:14:25.350Z,64.90
2023-03-27T01:17:00.040Z,65.10
2023-03-27T01:19:51.936Z,64.90
2023-03-27T01:22:32.625Z,65.00
2023-03-27T01:25:29.156Z,65.00
2023-03-27T01:28:23.083Z,65.20
2023-03-27T01:30:52.473Z,65.30
2023-03-27T01:33:33.650Z,65.30
2023-03-27T01:36:27.372Z,64.90
2023-03-27T01:39:18.562Z,64.50
2023-03-27T01:41:50.256Z,64.30
2023-03-27T01:44:20.253Z,64.60
2023-03-27T01:46:50.077Z,64.60
2023-03-27T01:49:19.321Z,64.40
2023-03-27T01:51:49.110Z,64.50
2023-03-27T01:54:21.645Z,64.60
2023-03-27T01:56:53.735Z,64.80
2023-03-27T01:59:24.813Z,65.10
2023-03-27T02:01:54.681Z,65.00
2023-03-27T02:04:23.457Z,64.90
2023-03-27T02:06:52.744Z,65.00
2023-03-27T02:09:23.407Z,65.00
2023-03-27T02:11:52.441Z,65.10
2023-03-27T02:14:21.974Z,65.30
2023-03-27T02:16:52.426Z,65.20
2023-03-27T02:19:23.199Z,64.80
2023-03-27T02:21:51.177Z,64.60
2023-03-27T02:24:19.358Z,64.40
2023-03-27T02:26:49.363Z,64.60
2023-03-27T02:29:32.580Z,64.80
2023-03-27T02:32:11.376Z,64.70
2023-03-27T02:35:09.882Z,64.60
2023-03-27T02:37:46.389Z,64.80
2023-03-27T02:40:22.757Z,64.80
2023-03-27T02:43:00.212Z,65.10
2023-03-27T02:45:32.574Z,65.10
2023-03-27T02:48:02.310Z,65.00
2023-03-27T02:50:33.084Z,65.00
2023-03-27T02:53:09.396Z,65.10
2023-03-27T02:55:38.674Z,65.00
2023-03-27T02:58:13.663Z,65.30
2023-03-27T03:00:55.955Z,65.20
2023-03-27T03:03:36.146Z,64.90
2023-03-27T03:06:14.224Z,64.50
2023-03-27T03:08:43.237Z,64.20
2023-03-27T03:11:14.209Z,64.30
2023-03-27T03:13:44.051Z,64.60
2023-03-27T03:16:12.334Z,64.40
2023-03-27T03:18:41.195Z,64.40
2023-03-27T03:21:09.541Z,64.50
2023-03-27T03:23:39.178Z,64.60
2023-03-27T03:26:07.806Z,64.80
2023-03-27T03:29:00.707Z,65.00
2023-03-27T03:31:44.083Z,64.80
2023-03-27T03:34:12.946Z,64.90
2023-03-27T03:36:41.971Z,64.90
2023-03-27T03:39:11.322Z,65.00
2023-03-27T03:41:39.333Z,65.20
2023-03-27T03:44:08.716Z,65.20
2023-03-27T03:46:36.772Z,64.80
2023-03-27T03:49:05.240Z,64.50
2023-03-27T03:51:33.283Z,64.40
2023-03-27T03:54:01.884Z,64.60
2023-03-27T03:56:30.885Z,64.70
2023-03-27T03:58:59.001Z,64.60
2023-03-27T04:01:28.387Z,64.60
2023-03-27T04:04:02.153Z,64.80
2023-03-27T04:06:43.153Z,64.80
2023-03-27T04:09:11.598Z,65.00
2023-03-27T04:11:57.749Z,65.00
2023-03-27T04:14:42.876Z,64.80
2023-03-27T04:17:33.270Z,64.90
2023-03-27T04:20:05.739Z,64.90
2023-03-27T04:22:37.783Z,64.80
2023-03-27T04:25:09.397Z,64.80
2023-03-27T04:27:37.313Z,64.80
2023-03-27T04:30:16.522Z,64.40
2023-03-27T04:33:06.480Z,64.00
2023-03-27T04:36:06.105Z,63.70
2023-03-27T04:38:49.779Z,63.80
2023-03-27T04:41:18.582Z,63.90
2023-03-27T04:43:46.566Z,63.80
2023-03-27T04:46:14.674Z,63.70
2023-03-27T04:48:45.921Z,64.00
2023-03-27T04:51:27.490Z,64.10
2023-03-27T04:53:56.425Z,64.20
2023-03-27T04:56:25.783Z,64.00
2023-03-27T04:58:55.916Z,63.80
2023-03-27T05:01:25.202Z,64.10
2023-03-27T05:04:12.630Z,64.30
2023-03-27T05:06:50.053Z,64.20
2023-03-27T05:09:20.129Z,64.30
2023-03-27T05:11:49.861Z,64.40
2023-03-27T05:14:18.056Z,64.10
2023-03-27T05:16:46.169Z,63.80
2023-03-27T05:19:16.208Z,63.50
2023-03-27T05:21:53.820Z,63.50
2023-03-27T05:24:21.741Z,63.70
2023-03-27T05:26:50.042Z,63.80
2023-03-27T05:29:17.949Z,63.50
2023-03-27T05:31:48.171Z,63.70
2023-03-27T05:34:38.461Z,63.90
2023-03-27T05:37:08.313Z,63.80
2023-03-27T05:39:49.568Z,64.00
2023-03-27T05:42:17.827Z,63.90
2023-03-27T05:44:46.082Z,63.80
2023-03-27T05:47:14.492Z,64.00
2023-03-27T05:49:44.548Z,64.10
2023-03-27T05:52:14.072Z,64.10
2023-03-27T05:54:42.181Z,64.20
2023-03-27T05:57:11.808Z,64.30
2023-03-27T05:59:41.694Z,64.40
2023-03-27T06:02:23.983Z,64.40
2023-03-27T06:04:59.116Z,64.20
2023-03-27T06:07:31.098Z,64.20
2023-03-27T06:10:04.432Z,64.00
2023-03-27T06:12:45.258Z,63.60
2023-03-27T06:15:25.682Z,63.20
2023-03-27T06:18:11.594Z,62.90
2023-03-27T06:20:42.635Z,62.30
2023-03-27T06:23:10.543Z,62.60
2023-03-27T06:25:39.345Z,61.40
2023-03-27T06:28:09.359Z,61.10
2023-03-27T06:30:43.118Z,60.70
2023-03-27T06:33:27.197Z,60.40
2023-03-27T06:36:00.735Z,60.20
2023-03-27T06:38:34.636Z,60.20
2023-03-27T06:41:04.230Z,60.50
2023-03-27T06:44:07.593Z,60.90
2023-03-27T06:46:48.726Z,61.60
2023-03-27T06:49:33.362Z,61.80
2023-03-27T06:52:11.392Z,61.90
2023-03-27T06:54:39.815Z,62.00
2023-03-27T06:57:07.759Z,62.50
2023-03-27T06:59:58.529Z,62.60
2023-03-27T07:02:44.434Z,63.10
2023-03-27T07:05:33.766Z,62.80
2023-03-27T07:08:11.240Z,63.00
2023-03-27T07:10:59.783Z,63.10
2023-03-27T07:13:28.517Z,63.30
2023-03-27T07:15:59.255Z,63.50
2023-03-27T07:18:28.708Z,63.60
2023-03-27T07:20:56.906Z,63.20
2023-03-27T07:23:27.298Z,62.90
2023-03-27T07:26:02.154Z,62.50
2023-03-27T07:28:50.394Z,62.50
2023-03-27T07:33:49.609Z,63.00
2023-03-27T07:36:19.764Z,62.70
2023-03-27T07:38:57.847Z,63.00
2023-03-27T07:41:30.006Z,63.20
2023-03-27T07:44:00.771Z,63.30
2023-03-27T07:46:37.644Z,63.30
2023-03-27T07:49:05.952Z,63.30
2023-03-27T07:51:35.824Z,63.40
2023-03-27T07:54:05.723Z,63.50
2023-03-27T07:56:39.416Z,63.70
2023-03-27T07:59:33.311Z,63.60
2023-03-27T08:02:13.927Z,63.60
2023-03-27T08:04:42.213Z,63.30
2023-03-27T08:07:11.624Z,62.90
2023-03-27T08:09:43.633Z,62.40
2023-03-27T08:12:12.210Z,62.60
2023-03-27T08:14:45.654Z,62.90
2023-03-27T08:17:22.064Z,62.60
2023-03-27T08:19:50.588Z,62.60
2023-03-27T08:22:21.006Z,62.90
2023-03-27T08:25:10.094Z,63.10
2023-03-27T08:27:39.343Z,63.30
2023-03-27T08:30:09.240Z,63.00
2023-03-27T08:32:43.880Z,63.20
2023-03-27T08:35:12.550Z,63.30
2023-03-27T08:37:41.719Z,64.10
2023-03-27T08:40:30.869Z,63.50
2023-03-27T08:43:22.617Z,63.60
2023-03-27T08:45:52.853Z,63.30
2023-03-27T08:48:25.522Z,63.40
2023-03-27T08:50:54.950Z,63.50
2023-03-27T08:53:29.596Z,63.60
2023-03-27T08:56:00.776Z,63.60
2023-03-27T08:58:38.054Z,63.60
2023-03-27T09:01:29.451Z,63.40
2023-03-27T09:04:04.143Z,63.00
2023-03-27T09:06:39.513Z,62.50
2023-03-27T09:09:10.720Z,62.60
2023-03-27T09:11:47.889Z,63.00
2023-03-27T09:14:25.950Z,62.80
2023-03-27T09:16:54.019Z,62.70
2023-03-27T09:19:36.657Z,62.90
2023-03-27T09:22:06.253Z,63.00
2023-03-27T09:24:56.373Z,63.10
2023-03-27T09:27:57.969Z,63.20
2023-03-27T09:30:37.444Z,63.80
2023-03-27T09:33:28.031Z,63.30
2023-03-27T09:35:56.324Z,63.40
2023-03-27T09:38:27.340Z,63.50
2023-03-27T09:40:58.159Z,63.50
2023-03-27T09:43:31.731Z,63.30
2023-03-27T09:46:02.135Z,63.30
2023-03-27T09:48:36.465Z,63.40
2023-03-27T09:51:41.879Z,63.40
2023-03-27T09:54:17.891Z,63.50
2023-03-27T09:56:47.496Z,63.80
2023-03-27T09:59:27.900Z,63.60
2023-03-27T10:02:10.152Z,63.20
2023-03-27T10:04:39.361Z,62.70
2023-03-27T10:07:08.208Z,62.60
2023-03-27T10:10:07.175Z,63.10
2023-03-27T10:12:41.581Z,63.20
2023-03-27T10:15:28.890Z,63.00
2023-03-27T10:17:56.902Z,63.10
2023-03-27T10:20:27.568Z,63.20
2023-03-27T10:22:56.497Z,63.30
2023-03-27T10:25:32.022Z,63.70
2023-03-27T10:28:18.378Z,63.40
2023-03-27T10:31:10.146Z,63.50
2023-03-27T10:34:04.960Z,63.50
2023-03-27T10:36:51.281Z,63.60
2023-03-27T10:39:22.076Z,63.90
2023-03-27T10:42:14.178Z,64.00
2023-03-27T10:44:47.169Z,63.60
2023-03-27T10:47:20.416Z,63.10
2023-03-27T10:49:52.414Z,63.00
2023-03-27T10:52:34.710Z,63.30
2023-03-27T10:55:41.459Z,63.60
2023-03-27T10:58:23.514Z,63.20
2023-03-27T11:00:54.606Z,63.30
2023-03-27T11:03:26.501Z,63.50
2023-03-27T11:06:00.396Z,63.60
2023-03-27T11:08:36.668Z,63.90
2023-03-27T11:11:08.561Z,63.50
2023-03-27T11:13:47.577Z,64.20
2023-03-27T11:16:19.541Z,63.50
2023-03-27T11:19:25.710Z,63.70
2023-03-27T11:22:16.181Z,63.80
2023-03-27T11:24:50.877Z,64.00
2023-03-27T11:27:21.011Z,63.70
2023-03-27T11:29:51.817Z,63.30
2023-03-27T11:32:22.409Z,63.20
2023-03-27T11:35:00.911Z,63.40
2023-03-27T11:37:41.729Z,63.70
2023-03-27T11:40:13.744Z,63.40
2023-03-27T11:42:43.470Z,63.20
2023-03-27T11:45:16.646Z,63.50
2023-03-27T11:48:11.073Z,63.60
2023-03-27T11:50:50.393Z,63.60
2023-03-27T11:53:45.531Z,63.90
2023-03-27T11:56:32.851Z,63.60
2023-03-27T11:59:22.631Z,63.80
2023-03-27T12:02:01.932Z,63.80
2023-03-27T12:04:44.751Z,63.80
2023-03-27T12:07:47.363Z,64.10
2023-03-27T12:10:29.154Z,64.00
2023-03-27T12:13:40.679Z,63.70
2023-03-27T12:16:41.083Z,63.10
2023-03-27T12:19:28.562Z,62.90
2023-03-27T12:22:25.516Z,63.30
2023-03-27T12:25:06.637Z,63.10
2023-03-27T12:28:02.344Z,63.30
2023-03-27T12:30:43.408Z,63.40
2023-03-27T12:33:30.577Z,63.50
2023-03-27T12:35:59.511Z,63.70
2023-03-27T12:38:28.744Z,63.70
2023-03-27T12:41:10.875Z,63.50
2023-03-27T12:44:03.499Z,63.70
2023-03-27T12:46:39.306Z,63.80
2023-03-27T12:49:47.750Z,63.80
2023-03-27T12:52:25.501Z,64.10
2023-03-27T12:55:09.275Z,63.80
2023-03-27T12:58:02.791Z,63.80
2023-03-27T13:00:54.419Z,63.90
2023-03-27T13:03:44.047Z,64.10
2023-03-27T13:06:22.543Z,64.30
2023-03-27T13:08:59.610Z,64.00
2023-03-27T13:11:41.417Z,63.70
2023-03-27T13:14:23.172Z,64.00
2023-03-27T13:17:07.093Z,62.80
2023-03-27T13:19:49.661Z,63.10
2023-03-27T13:22:30.158Z,63.30
2023-03-27T13:25:17.436Z,63.00
2023-03-27T13:27:51.521Z,63.40
2023-03-27T13:30:41.972Z,63.30
2023-03-27T13:33:30.714Z,63.50
2023-03-27T13:36:08.455Z,63.80
2023-03-27T13:38:48.435Z,63.60
2023-03-27T13:41:41.278Z,63.70
2023-03-27T13:44:19.062Z,63.80
2023-03-27T13:46:51.700Z,63.90
2023-03-27T13:49:25.167Z,64.10
2023-03-27T13:52:29.128Z,63.80
2023-03-27T13:55:25.298Z,64.00
2023-03-27T13:58:26.811Z,63.90
2023-03-27T14:01:20.953Z,63.90
2023-03-27T14:04:18.521Z,64.10
2023-03-27T14:07:12.634Z,64.10
2023-03-27T14:10:10.819Z,63.70
2023-03-27T14:12:58.321Z,63.10
2023-03-27T14:15:57.029Z,62.90
2023-03-27T14:19:08.538Z,63.30
2023-03-27T14:21:50.523Z,63.20
2023-03-27T14:24:25.555Z,63.30
2023-03-27T14:27:01.150Z,63.40
2023-03-27T14:29:29.594Z,63.60
2023-03-27T14:32:03.249Z,63.80
2023-03-27T14:34:47.220Z,63.80
2023-03-27T14:37:41.867Z,63.70
2023-03-27T14:40:31.601Z,63.70
2023-03-27T14:43:03.078Z,63.90
2023-03-27T14:45:32.905Z,63.90
2023-03-27T14:48:06.202Z,64.00
2023-03-27T14:50:46.395Z,63.80
2023-03-27T14:53:17.812Z,63.90
2023-03-27T14:56:24.135Z,63.90
2023-03-27T14:58:55.799Z,64.00
2023-03-27T15:01:24.289Z,64.10
2023-03-27T15:03:55.613Z,64.00
2023-03-27T15:06:26.370Z,63.80
2023-03-27T15:09:05.115Z,63.40
2023-03-27T15:11:59.987Z,63.00
2023-03-27T15:14:32.437Z,63.30
2023-03-27T15:17:06.713Z,63.50
2023-03-27T15:19:43.116Z,63.30
2023-03-27T15:22:16.761Z,63.20
2023-03-27T15:24:46.044Z,63.40
2023-03-27T15:27:17.623Z,63.50
2023-03-27T15:29:46.499Z,63.60
2023-03-27T15:32:17.916Z,63.80
2023-03-27T15:34:47.443Z,63.60
2023-03-27T15:37:21.575Z,63.80
2023-03-27T15:40:36.514Z,63.80
2023-03-27T15:43:06.541Z,63.80
2023-03-27T15:45:39.842Z,63.90
2023-03-27T15:48:17.634Z,64.20
2023-03-27T15:50:55.340Z,63.70
2023-03-27T15:53:43.146Z,63.30
2023-03-27T15:56:21.767Z,63.00
2023-03-27T15:58:51.898Z,63.10
2023-03-27T16:01:21.496Z,63.20
2023-03-27T16:03:51.299Z,63.20
2023-03-27T16:06:28.041Z,63.10
2023-03-27T16:08:57.386Z,63.40
2023-03-27T16:11:42.845Z,63.50
2023-03-27T16:14:20.968Z,63.50
2023-03-27T16:16:49.584Z,63.60
2023-03-27T16:19:17.517Z,63.50
2023-03-27T16:21:54.936Z,63.60
2023-03-27T16:24:24.202Z,63.70
2023-03-27T16:26:54.376Z,63.70
2023-03-27T16:29:22.851Z,63.70
2023-03-27T16:31:50.867Z,63.50
2023-03-27T16:34:22.918Z,63.60
2023-03-27T16:36:51.499Z,63.70
2023-03-27T16:39:19.434Z,63.80
2023-03-27T16:41:48.708Z,63.80
2023-03-27T16:44:17.207Z,63.80
2023-03-27T16:46:46.459Z,63.80
2023-03-27T16:49:14.425Z,63.40
2023-03-27T16:51:43.480Z,63.10
2023-03-27T16:54:11.424Z,62.90
2023-03-27T16:56:39.373Z,63.10
2023-03-27T16:59:08.748Z,63.20
2023-03-27T17:01:36.706Z,63.20
2023-03-27T17:04:04.732Z,63.10
2023-03-27T17:06:33.254Z,63.30
2023-03-27T17:09:01.234Z,63.50
2023-03-27T17:11:29.146Z,63.60
2023-03-27T17:13:57.269Z,63.70
2023-03-27T17:16:26.596Z,63.50
2023-03-27T17:18:55.691Z,63.70
2023-03-27T17:21:23.697Z,63.70
2023-03-27T17:23:52.703Z,63.70
2023-03-27T17:26:26.712Z,63.60
2023-03-27T17:28:54.792Z,63.60
2023-03-27T17:31:22.896Z,63.50
2023-03-27T17:33:52.261Z,63.40
2023-03-27T17:36:29.816Z,62.90
2023-03-27T17:39:06.124Z,62.90
2023-03-27T17:41:34.049Z,63.00
2023-03-27T17:44:01.978Z,63.10
2023-03-27T17:46:30.042Z,62.90
2023-03-27T17:48:59.312Z,63.10
2023-03-27T17:51:27.323Z,63.30
2023-03-27T17:53:55.480Z,63.50
2023-03-27T17:56:23.642Z,63.50
2023-03-27T17:58:51.751Z,63.30
2023-03-27T18:01:20.851Z,63.30
2023-03-27T18:03:48.989Z,63.50
2023-03-27T18:06:18.848Z,63.50
2023-03-27T18:08:47.337Z,63.50
2023-03-27T18:11:19.105Z,63.40
2023-03-27T18:13:51.232Z,63.30
2023-03-27T18:16:20.017Z,63.10
2023-03-27T18:18:48.029Z,62.70
2023-03-27T18:21:19.210Z,62.70
2023-03-27T18:23:47.199Z,62.90
2023-03-27T18:26:15.427Z,63.00
2023-03-27T18:28:43.511Z,62.90
2023-03-27T18:31:12.230Z,62.80
2023-03-27T18:33:40.271Z,63.00
2023-03-27T18:36:11.428Z,63.20
2023-03-27T18:38:41.613Z,63.20
2023-03-27T18:41:09.720Z,63.20
2023-03-27T18:43:37.738Z,63.10
2023-03-27T18:46:06.692Z,63.20
2023-03-27T18:48:35.033Z,63.40
2023-03-27T18:51:03.598Z,63.50
2023-03-27T18:53:31.892Z,64.20
2023-03-27T18:56:01.663Z,63.50
2023-03-27T18:58:30.176Z,63.00
2023-03-27T19:00:58.171Z,62.60
2023-03-27T19:03:30.111Z,62.20
2023-03-27T19:06:00.814Z,62.40
2023-03-27T19:08:28.766Z,62.60
2023-03-27T19:10:57.348Z,62.50
2023-03-27T19:13:45.494Z,62.30
2023-03-27T19:16:18.628Z,62.50
2023-03-27T19:19:12.511Z,62.90
2023-03-27T19:21:52.678Z,62.90
2023-03-27T19:24:41.002Z,62.90
2023-03-27T19:27:24.151Z,62.60
2023-03-27T19:29:53.941Z,62.50
2023-03-27T19:32:23.378Z,62.90
2023-03-27T19:34:51.332Z,63.00
2023-03-27T19:37:19.257Z,63.10
2023-03-27T19:39:47.207Z,63.10
2023-03-27T19:42:15.408Z,62.50
2023-03-27T19:44:43.326Z,62.30
2023-03-27T19:47:12.595Z,62.00
2023-03-27T19:49:42.496Z,61.70
2023-03-27T19:52:20.557Z,61.70
2023-03-27T19:54:48.507Z,62.10
2023-03-27T19:57:16.493Z,61.70
2023-03-27T19:59:46.440Z,61.70
2023-03-27T20:02:15.884Z,62.00
2023-03-27T20:04:43.884Z,62.20
2023-03-27T20:07:12.728Z,62.40
2023-03-27T20:09:43.704Z,62.50
2023-03-27T20:12:14.331Z,62.20
2023-03-27T20:14:43.601Z,62.20
2023-03-27T20:17:28.118Z,62.50
2023-03-27T20:19:56.402Z,62.60
2023-03-27T20:22:24.392Z,62.70
2023-03-27T20:24:54.415Z,62.70
2023-03-27T20:27:29.973Z,62.40
2023-03-27T20:29:58.065Z,62.20
2023-03-27T20:32:27.429Z,61.80
2023-03-27T20:34:57.818Z,61.90
2023-03-27T20:37:26.965Z,62.20
2023-03-27T20:40:11.594Z,62.20
2023-03-27T20:42:46.844Z,62.00
2023-03-27T20:45:19.126Z,62.00
2023-03-27T20:47:48.827Z,62.20
2023-03-27T20:50:17.092Z,62.30
2023-03-27T20:52:45.650Z,62.50
2023-03-27T20:55:22.910Z,62.40
2023-03-27T20:58:00.658Z,62.10
2023-03-27T21:00:31.569Z,61.90
2023-03-27T21:03:00.981Z,61.60
2023-03-27T21:05:32.551Z,61.80
2023-03-27T21:08:00.494Z,62.10
2023-03-27T21:10:28.379Z,62.00
2023-03-27T21:12:57.496Z,61.90
2023-03-27T21:15:25.622Z,62.10
2023-03-27T21:17:53.557Z,62.30
2023-03-27T21:20:23.119Z,62.40
2023-03-27T21:22:52.677Z,62.40
2023-03-27T21:25:20.941Z,62.20
2023-03-27T21:27:53.363Z,62.00
2023-03-27T21:30:22.071Z,62.30
2023-03-27T21:32:50.695Z,62.40
2023-03-27T21:35:18.923Z,62.50
2023-03-27T21:37:48.469Z,62.40
2023-03-27T21:40:16.504Z,62.20
2023-03-27T21:42:44.427Z,62.00
2023-03-27T21:45:12.349Z,61.80
2023-03-27T21:47:47.620Z,61.40
2023-03-27T21:50:16.139Z,61.10
2023-03-27T21:52:44.063Z,61.50
2023-03-27T21:55:13.370Z,61.50
2023-03-27T21:57:41.297Z,61.30
2023-03-27T22:00:10.222Z,61.40
2023-03-27T22:02:43.179Z,61.80
2023-03-27T22:05:11.149Z,61.90
2023-03-27T22:07:39.167Z,62.00
2023-03-27T22:10:08.021Z,62.00
2023-03-27T22:12:37.548Z,61.70
2023-03-27T22:15:06.257Z,61.90
2023-03-27T22:17:35.895Z,62.10
2023-03-27T22:20:04.001Z,62.10
2023-03-27T22:22:31.933Z,62.20
2023-03-27T22:24:59.915Z,62.20
2023-03-27T22:27:28.014Z,62.70
2023-03-27T22:29:57.344Z,62.00
2023-03-27T22:32:25.505Z,62.30
2023-03-27T22:34:53.454Z,62.30
2023-03-27T22:37:21.598Z,62.30
2023-03-27T22:39:49.455Z,62.00
2023-03-27T22:42:20.194Z,61.80
2023-03-27T22:44:48.102Z,61.60
2023-03-27T22:47:17.360Z,61.20
2023-03-27T22:49:45.274Z,61.10
2023-03-27T22:52:13.200Z,61.50
2023-03-27T22:54:41.107Z,61.40
2023-03-27T22:57:09.046Z,61.20
2023-03-27T22:59:38.664Z,61.40
2023-03-27T23:02:07.021Z,61.80
2023-03-27T23:04:36.535Z,61.70
2023-03-27T23:07:04.469Z,61.90
2023-03-27T23:09:32.393Z,61.90
2023-03-27T23:12:00.387Z,61.70
2023-03-27T23:14:28.297Z,61.80
2023-03-27T23:16:56.283Z,62.10
2023-03-27T23:19:24.251Z,62.00
2023-03-27T23:21:53.556Z,62.10
2023-03-27T23:24:21.538Z,61.90
2023-03-27T23:26:49.437Z,62.40
2023-03-27T23:29:17.346Z,61.40
2023-03-27T23:31:45.350Z,61.10
2023-03-27T23:34:13.304Z,60.90
2023-03-27T23:36:41.205Z,61.20
2023-03-27T23:39:10.472Z,61.30
2023-03-27T23:41:38.420Z,61.10
2023-03-27T23:44:06.416Z,61.10
2023-03-27T23:46:34.376Z,61.50
2023-03-27T23:49:02.358Z,61.60
2023-03-27T23:51:33.334Z,61.60
2023-03-27T23:54:01.267Z,61.70
2023-03-27T23:56:30.972Z,61.40
2023-03-27T23:58:58.902Z,61.60
